sensor_id;sensor_type;location;lat;lon;timestamp;temperature;humidity
2603;DHT22;1311;47.966;7.958;2024-02-28T00:01:01;7.70;99.90
2603;DHT22;1311;47.966;7.958;2024-02-28T00:03:28;7.70;99.90
2603;DHT22;1311;47.966;7.958;2024-02-28T00:05:57;7.70;99.90
2603;DHT22;1311;47.966;7.958;2024-02-28T00:08:24;7.70;99.90
2603;DHT22;1311;47.966;7.958;2024-02-28T00:10:50;7.70;99.90
2603;DHT22;1311;47.966;7.958;2024-02-28T00:13:17;7.70;99.90
2603;DHT22;1311;47.966;7.958;2024-02-28T00:15:45;7.70;99.90
2603;DHT22;1311;47.966;7.958;2024-02-28T00:18:13;7.70;99.90
2603;DHT22;1311;47.966;7.958;2024-02-28T00:20:40;7.70;99.90
2603;DHT22;1311;47.966;7.958;2024-02-28T00:23:07;7.70;99.90
2603;DHT22;1311;47.966;7.958;2024-02-28T00:25:33;7.70;99.90
2603;DHT22;1311;47.966;7.958;2024-02-28T00:28:00;7.70;99.90
2603;DHT22;1311;47.966;7.958;2024-02-28T00:30:27;7.60;99.90
2603;DHT22;1311;47.966;7.958;2024-02-28T00:32:54;7.60;99.90
2603;DHT22;1311;47.966;7.958;2024-02-28T00:35:22;7.60;99.90
2603;DHT22;1311;47.966;7.958;2024-02-28T00:37:48;7.60;99.90
2603;DHT22;1311;47.966;7.958;2024-02-28T00:40:15;7.60;99.90
2603;DHT22;1311;47.966;7.958;2024-02-28T00:42:42;7.60;99.90
2603;DHT22;1311;47.966;7.958;2024-02-28T00:45:09;7.60;99.90
2603;DHT22;1311;47.966;7.958;2024-02-28T00:47:36;7.60;99.90
2603;DHT22;1311;47.966;7.958;2024-02-28T00:50:04;7.60;99.90
2603;DHT22;1311;47.966;7.958;2024-02-28T00:52:32;7.60;99.90
2603;DHT22;1311;47.966;7.958;2024-02-28T00:54:59;7.60;99.90
2603;DHT22;1311;47.966;7.958;2024-02-28T00:57:26;7.60;99.90
2603;DHT22;1311;47.966;7.958;2024-02-28T00:59:52;7.60;99.90
2603;DHT22;1311;47.966;7.958;2024-02-28T01:02:20;7.60;99.90
2603;DHT22;1311;47.966;7.958;2024-02-28T01:04:47;7.60;99.90
2603;DHT22;1311;47.966;7.958;2024-02-28T01:07:14;7.60;99.90
2603;DHT22;1311;47.966;7.958;2024-02-28T01:09:42;7.60;99.90
2603;DHT22;1311;47.966;7.958;2024-02-28T01:12:09;7.50;99.90
2603;DHT22;1311;47.966;7.958;2024-02-28T01:14:35;7.50;99.90
2603;DHT22;1311;47.966;7.958;2024-02-28T01:17:02;7.50;99.90
2603;DHT22;1311;47.966;7.958;2024-02-28T01:19:29;7.50;99.90
2603;DHT22;1311;47.966;7.958;2024-02-28T01:21:56;7.50;99.90
2603;DHT22;1311;47.966;7.958;2024-02-28T01:24:23;7.50;99.90
2603;DHT22;1311;47.966;7.958;2024-02-28T01:26:51;7.50;99.90
2603;DHT22;1311;47.966;7.958;2024-02-28T01:29:18;7.50;99.90
2603;DHT22;1311;47.966;7.958;2024-02-28T01:31:45;7.50;99.90
2603;DHT22;1311;47.966;7.958;2024-02-28T01:34:12;7.50;99.90
2603;DHT22;1311;47.966;7.958;2024-02-28T01:36:38;7.50;99.90
2603;DHT22;1311;47.966;7.958;2024-02-28T01:39:05;7.50;99.90
2603;DHT22;1311;47.966;7.958;2024-02-28T01:41:32;7.50;99.90
2603;DHT22;1311;47.966;7.958;2024-02-28T01:44:00;7.50;99.90
2603;DHT22;1311;47.966;7.958;2024-02-28T01:46:28;7.50;99.90
2603;DHT22;1311;47.966;7.958;2024-02-28T01:48:57;7.50;99.90
2603;DHT22;1311;47.966;7.958;2024-02-28T01:51:25;7.40;99.90
2603;DHT22;1311;47.966;7.958;2024-02-28T01:53:54;7.40;99.90
2603;DHT22;1311;47.966;7.958;2024-02-28T01:56:23;7.40;99.90
2603;DHT22;1311;47.966;7.958;2024-02-28T01:58:51;7.40;99.90
2603;DHT22;1311;47.966;7.958;2024-02-28T02:01:19;7.40;99.90
2603;DHT22;1311;47.966;7.958;2024-02-28T02:03:46;7.40;99.90
2603;DHT22;1311;47.966;7.958;2024-02-28T02:06:14;7.40;99.90
2603;DHT22;1311;47.966;7.958;2024-02-28T02:08:41;7.30;99.90
2603;DHT22;1311;47.966;7.958;2024-02-28T02:11:08;7.30;99.90
2603;DHT22;1311;47.966;7.958;2024-02-28T02:13:35;7.20;99.90
2603;DHT22;1311;47.966;7.958;2024-02-28T02:16:02;7.10;99.90
2603;DHT22;1311;47.966;7.958;2024-02-28T02:18:30;7.10;99.90
2603;DHT22;1311;47.966;7.958;2024-02-28T02:21:02;7.10;99.90
2603;DHT22;1311;47.966;7.958;2024-02-28T02:23:32;7.10;99.90
2603;DHT22;1311;47.966;7.958;2024-02-28T02:25:59;7.10;99.90
2603;DHT22;1311;47.966;7.958;2024-02-28T02:28:26;7.10;99.90
2603;DHT22;1311;47.966;7.958;2024-02-28T02:30:52;7.00;99.90
2603;DHT22;1311;47.966;7.958;2024-02-28T02:33:19;7.00;99.90
2603;DHT22;1311;47.966;7.958;2024-02-28T02:35:46;6.90;99.90
2603;DHT22;1311;47.966;7.958;2024-02-28T02:38:12;6.90;99.90
2603;DHT22;1311;47.966;7.958;2024-02-28T02:40:40;6.90;99.90
2603;DHT22;1311;47.966;7.958;2024-02-28T02:43:07;6.90;99.90
2603;DHT22;1311;47.966;7.958;2024-02-28T02:45:35;6.90;99.90
2603;DHT22;1311;47.966;7.958;2024-02-28T02:48:01;6.80;99.90
2603;DHT22;1311;47.966;7.958;2024-02-28T02:50:28;6.80;99.90
2603;DHT22;1311;47.966;7.958;2024-02-28T02:52:55;6.80;99.90
2603;DHT22;1311;47.966;7.958;2024-02-28T02:55:21;6.80;99.90
2603;DHT22;1311;47.966;7.958;2024-02-28T02:57:49;6.90;99.90
2603;DHT22;1311;47.966;7.958;2024-02-28T03:00:17;6.80;99.90
2603;DHT22;1311;47.966;7.958;2024-02-28T03:02:43;6.80;99.90
2603;DHT22;1311;47.966;7.958;2024-02-28T03:05:10;6.80;99.90
2603;DHT22;1311;47.966;7.958;2024-02-28T03:07:36;6.80;99.90
2603;DHT22;1311;47.966;7.958;2024-02-28T03:10:03;6.80;99.90
2603;DHT22;1311;47.966;7.958;2024-02-28T03:12:29;6.70;99.90
2603;DHT22;1311;47.966;7.958;2024-02-28T03:14:58;6.70;99.90
2603;DHT22;1311;47.966;7.958;2024-02-28T03:17:25;6.70;99.90
2603;DHT22;1311;47.966;7.958;2024-02-28T03:19:52;6.60;99.90
2603;DHT22;1311;47.966;7.958;2024-02-28T03:22:18;6.60;99.90
2603;DHT22;1311;47.966;7.958;2024-02-28T03:24:45;6.50;99.90
2603;DHT22;1311;47.966;7.958;2024-02-28T03:27:12;6.50;99.90
2603;DHT22;1311;47.966;7.958;2024-02-28T03:29:38;6.50;99.90
2603;DHT22;1311;47.966;7.958;2024-02-28T03:32:07;6.40;99.90
2603;DHT22;1311;47.966;7.958;2024-02-28T03:34:33;6.40;99.90
2603;DHT22;1311;47.966;7.958;2024-02-28T03:37:00;6.40;99.90
2603;DHT22;1311;47.966;7.958;2024-02-28T03:39:27;6.40;99.90
2603;DHT22;1311;47.966;7.958;2024-02-28T03:41:54;6.30;99.90
2603;DHT22;1311;47.966;7.958;2024-02-28T03:44:21;6.40;99.90
2603;DHT22;1311;47.966;7.958;2024-02-28T03:46:48;6.40;99.90
2603;DHT22;1311;47.966;7.958;2024-02-28T03:49:16;6.40;99.90
2603;DHT22;1311;47.966;7.958;2024-02-28T03:51:42;6.40;99.90
2603;DHT22;1311;47.966;7.958;2024-02-28T03:54:10;6.30;99.90
2603;DHT22;1311;47.966;7.958;2024-02-28T03:56:37;6.40;99.90
2603;DHT22;1311;47.966;7.958;2024-02-28T03:59:03;6.40;99.90
2603;DHT22;1311;47.966;7.958;2024-02-28T04:01:30;6.40;99.90
2603;DHT22;1311;47.966;7.958;2024-02-28T04:03:57;6.40;99.90
2603;DHT22;1311;47.966;7.958;2024-02-28T04:06:25;6.30;99.90
2603;DHT22;1311;47.966;7.958;2024-02-28T04:08:52;6.40;99.90
2603;DHT22;1311;47.966;7.958;2024-02-28T04:11:19;6.40;99.90
2603;DHT22;1311;47.966;7.958;2024-02-28T04:13:46;6.40;99.90
2603;DHT22;1311;47.966;7.958;2024-02-28T04:16:13;6.30;99.90
2603;DHT22;1311;47.966;7.958;2024-02-28T04:18:39;6.30;99.90
2603;DHT22;1311;47.966;7.958;2024-02-28T04:21:06;6.30;99.90
2603;DHT22;1311;47.966;7.958;2024-02-28T04:23:34;6.30;99.90
2603;DHT22;1311;47.966;7.958;2024-02-28T04:26:01;6.30;99.90
2603;DHT22;1311;47.966;7.958;2024-02-28T04:28:29;6.30;99.90
2603;DHT22;1311;47.966;7.958;2024-02-28T04:30:56;6.30;99.90
2603;DHT22;1311;47.966;7.958;2024-02-28T04:33:22;6.30;99.90
2603;DHT22;1311;47.966;7.958;2024-02-28T04:35:49;6.30;99.90
2603;DHT22;1311;47.966;7.958;2024-02-28T04:38:16;6.30;99.90
2603;DHT22;1311;47.966;7.958;2024-02-28T04:40:44;6.40;99.90
2603;DHT22;1311;47.966;7.958;2024-02-28T04:43:11;6.40;99.90
2603;DHT22;1311;47.966;7.958;2024-02-28T04:45:37;6.40;99.90
2603;DHT22;1311;47.966;7.958;2024-02-28T04:48:05;6.40;99.90
2603;DHT22;1311;47.966;7.958;2024-02-28T04:50:32;6.40;99.90
2603;DHT22;1311;47.966;7.958;2024-02-28T04:52:59;6.40;99.90
2603;DHT22;1311;47.966;7.958;2024-02-28T04:55:25;6.50;99.90
2603;DHT22;1311;47.966;7.958;2024-02-28T04:57:53;6.30;99.90
2603;DHT22;1311;47.966;7.958;2024-02-28T05:00:20;6.30;99.90
2603;DHT22;1311;47.966;7.958;2024-02-28T05:02:47;6.30;99.90
2603;DHT22;1311;47.966;7.958;2024-02-28T05:05:14;6.20;99.90
2603;DHT22;1311;47.966;7.958;2024-02-28T05:07:40;6.10;99.90
2603;DHT22;1311;47.966;7.958;2024-02-28T05:10:08;6.20;99.90
2603;DHT22;1311;47.966;7.958;2024-02-28T05:12:35;6.10;99.90
2603;DHT22;1311;47.966;7.958;2024-02-28T05:15:04;6.00;99.90
2603;DHT22;1311;47.966;7.958;2024-02-28T05:17:32;6.00;99.90
2603;DHT22;1311;47.966;7.958;2024-02-28T05:19:58;6.10;99.90
2603;DHT22;1311;47.966;7.958;2024-02-28T05:22:25;6.10;99.90
2603;DHT22;1311;47.966;7.958;2024-02-28T05:24:52;6.10;99.90
2603;DHT22;1311;47.966;7.958;2024-02-28T05:27:19;6.10;99.90
2603;DHT22;1311;47.966;7.958;2024-02-28T05:29:46;6.10;99.90
2603;DHT22;1311;47.966;7.958;2024-02-28T05:32:14;6.10;99.90
2603;DHT22;1311;47.966;7.958;2024-02-28T05:34:42;6.00;99.90
2603;DHT22;1311;47.966;7.958;2024-02-28T05:37:09;6.00;99.90
2603;DHT22;1311;47.966;7.958;2024-02-28T05:39:35;6.00;99.90
2603;DHT22;1311;47.966;7.958;2024-02-28T05:42:02;6.00;99.90
2603;DHT22;1311;47.966;7.958;2024-02-28T05:44:29;5.90;99.90
2603;DHT22;1311;47.966;7.958;2024-02-28T05:46:56;5.90;99.90
2603;DHT22;1311;47.966;7.958;2024-02-28T05:49:24;5.90;99.90
2603;DHT22;1311;47.966;7.958;2024-02-28T05:51:51;5.80;99.90
2603;DHT22;1311;47.966;7.958;2024-02-28T05:54:19;5.80;99.90
2603;DHT22;1311;47.966;7.958;2024-02-28T05:56:46;5.70;99.90
2603;DHT22;1311;47.966;7.958;2024-02-28T05:59:12;5.70;99.90
2603;DHT22;1311;47.966;7.958;2024-02-28T06:01:39;5.70;99.90
2603;DHT22;1311;47.966;7.958;2024-02-28T06:04:06;5.70;99.90
2603;DHT22;1311;47.966;7.958;2024-02-28T06:06:34;5.60;99.90
2603;DHT22;1311;47.966;7.958;2024-02-28T06:09:01;5.60;99.90
2603;DHT22;1311;47.966;7.958;2024-02-28T06:11:28;5.60;99.90
2603;DHT22;1311;47.966;7.958;2024-02-28T06:13:54;5.60;99.90
2603;DHT22;1311;47.966;7.958;2024-02-28T06:16:21;5.70;99.90
2603;DHT22;1311;47.966;7.958;2024-02-28T06:18:48;5.70;99.90
2603;DHT22;1311;47.966;7.958;2024-02-28T06:21:15;5.70;99.90
2603;DHT22;1311;47.966;7.958;2024-02-28T06:23:43;5.70;99.90
2603;DHT22;1311;47.966;7.958;2024-02-28T06:26:10;5.60;99.90
2603;DHT22;1311;47.966;7.958;2024-02-28T06:28:42;5.60;99.90
2603;DHT22;1311;47.966;7.958;2024-02-28T06:31:12;5.60;99.90
2603;DHT22;1311;47.966;7.958;2024-02-28T06:33:39;5.60;99.90
2603;DHT22;1311;47.966;7.958;2024-02-28T06:36:06;5.60;99.90
2603;DHT22;1311;47.966;7.958;2024-02-28T06:38:33;5.60;99.90
2603;DHT22;1311;47.966;7.958;2024-02-28T06:41:02;5.50;99.90
2603;DHT22;1311;47.966;7.958;2024-02-28T06:43:29;5.50;99.90
2603;DHT22;1311;47.966;7.958;2024-02-28T06:45:56;5.50;99.90
2603;DHT22;1311;47.966;7.958;2024-02-28T06:48:24;5.50;99.90
2603;DHT22;1311;47.966;7.958;2024-02-28T06:50:51;5.50;99.90
2603;DHT22;1311;47.966;7.958;2024-02-28T06:53:18;5.40;99.90
2603;DHT22;1311;47.966;7.958;2024-02-28T06:55:44;5.50;99.90
2603;DHT22;1311;47.966;7.958;2024-02-28T06:58:15;5.40;99.90
2603;DHT22;1311;47.966;7.958;2024-02-28T07:00:41;5.40;99.90
2603;DHT22;1311;47.966;7.958;2024-02-28T07:03:08;5.40;99.90
2603;DHT22;1311;47.966;7.958;2024-02-28T07:05:35;5.40;99.90
2603;DHT22;1311;47.966;7.958;2024-02-28T07:08:02;5.50;99.90
2603;DHT22;1311;47.966;7.958;2024-02-28T07:10:29;5.50;99.90
2603;DHT22;1311;47.966;7.958;2024-02-28T07:12:56;5.50;99.90
2603;DHT22;1311;47.966;7.958;2024-02-28T07:15:24;5.50;99.90
2603;DHT22;1311;47.966;7.958;2024-02-28T07:17:51;5.40;99.90
2603;DHT22;1311;47.966;7.958;2024-02-28T07:20:17;5.40;99.90
2603;DHT22;1311;47.966;7.958;2024-02-28T07:22:45;5.30;99.90
2603;DHT22;1311;47.966;7.958;2024-02-28T07:25:12;5.20;99.90
2603;DHT22;1311;47.966;7.958;2024-02-28T07:27:39;5.10;99.90
2603;DHT22;1311;47.966;7.958;2024-02-28T07:30:07;5.10;99.90
2603;DHT22;1311;47.966;7.958;2024-02-28T07:32:35;5.00;99.90
2603;DHT22;1311;47.966;7.958;2024-02-28T07:35:02;5.00;99.90
2603;DHT22;1311;47.966;7.958;2024-02-28T07:37:29;4.90;99.90
2603;DHT22;1311;47.966;7.958;2024-02-28T07:39:56;4.90;99.90
2603;DHT22;1311;47.966;7.958;2024-02-28T07:42:22;4.90;99.90
2603;DHT22;1311;47.966;7.958;2024-02-28T07:44:49;4.80;99.90
2603;DHT22;1311;47.966;7.958;2024-02-28T07:47:19;4.70;99.90
2603;DHT22;1311;47.966;7.958;2024-02-28T07:49:47;4.70;99.90
2603;DHT22;1311;47.966;7.958;2024-02-28T07:52:14;4.70;99.90
2603;DHT22;1311;47.966;7.958;2024-02-28T07:54:41;4.70;99.90
2603;DHT22;1311;47.966;7.958;2024-02-28T07:57:09;4.80;99.90
2603;DHT22;1311;47.966;7.958;2024-02-28T07:59:39;4.70;99.90
2603;DHT22;1311;47.966;7.958;2024-02-28T08:02:06;4.90;99.90
2603;DHT22;1311;47.966;7.958;2024-02-28T08:04:33;5.10;99.90
2603;DHT22;1311;47.966;7.958;2024-02-28T08:07:01;5.20;99.90
2603;DHT22;1311;47.966;7.958;2024-02-28T08:09:28;5.20;99.90
2603;DHT22;1311;47.966;7.958;2024-02-28T08:11:55;5.30;99.90
2603;DHT22;1311;47.966;7.958;2024-02-28T08:14:23;5.30;99.90
2603;DHT22;1311;47.966;7.958;2024-02-28T08:16:50;5.30;99.90
2603;DHT22;1311;47.966;7.958;2024-02-28T08:19:16;5.40;99.90
2603;DHT22;1311;47.966;7.958;2024-02-28T08:21:43;5.50;99.90
2603;DHT22;1311;47.966;7.958;2024-02-28T08:24:11;5.50;99.90
2603;DHT22;1311;47.966;7.958;2024-02-28T08:26:38;5.70;99.90
2603;DHT22;1311;47.966;7.958;2024-02-28T08:29:06;5.90;99.90
2603;DHT22;1311;47.966;7.958;2024-02-28T08:31:33;5.80;99.90
2603;DHT22;1311;47.966;7.958;2024-02-28T08:33:59;5.90;99.90
2603;DHT22;1311;47.966;7.958;2024-02-28T08:36:29;5.90;99.90
2603;DHT22;1311;47.966;7.958;2024-02-28T08:38:55;6.20;99.90
2603;DHT22;1311;47.966;7.958;2024-02-28T08:41:23;6.20;99.90
2603;DHT22;1311;47.966;7.958;2024-02-28T08:43:50;6.30;99.90
2603;DHT22;1311;47.966;7.958;2024-02-28T08:46:17;6.40;99.90
2603;DHT22;1311;47.966;7.958;2024-02-28T08:48:44;6.50;99.90
2603;DHT22;1311;47.966;7.958;2024-02-28T08:51:11;6.40;99.90
2603;DHT22;1311;47.966;7.958;2024-02-28T08:53:38;6.80;99.90
2603;DHT22;1311;47.966;7.958;2024-02-28T08:56:06;6.80;99.90
2603;DHT22;1311;47.966;7.958;2024-02-28T08:58:34;6.90;99.90
2603;DHT22;1311;47.966;7.958;2024-02-28T09:01:01;7.00;99.90
2603;DHT22;1311;47.966;7.958;2024-02-28T09:03:27;6.90;99.90
2603;DHT22;1311;47.966;7.958;2024-02-28T09:05:54;6.90;99.90
2603;DHT22;1311;47.966;7.958;2024-02-28T09:08:21;7.10;99.90
2603;DHT22;1311;47.966;7.958;2024-02-28T09:10:48;7.40;99.90
2603;DHT22;1311;47.966;7.958;2024-02-28T09:13:15;7.60;99.90
2603;DHT22;1311;47.966;7.958;2024-02-28T09:15:44;7.50;99.90
2603;DHT22;1311;47.966;7.958;2024-02-28T09:21:11;7.30;99.90
2603;DHT22;1311;47.966;7.958;2024-02-28T09:23:42;7.10;99.90
2603;DHT22;1311;47.966;7.958;2024-02-28T09:26:08;7.00;99.90
2603;DHT22;1311;47.966;7.958;2024-02-28T09:28:35;7.20;99.90
2603;DHT22;1311;47.966;7.958;2024-02-28T09:31:04;7.30;99.90
2603;DHT22;1311;47.966;7.958;2024-02-28T09:33:30;7.60;99.90
2603;DHT22;1311;47.966;7.958;2024-02-28T09:35:57;7.60;99.90
2603;DHT22;1311;47.966;7.958;2024-02-28T09:38:24;7.60;99.90
2603;DHT22;1311;47.966;7.958;2024-02-28T09:40:50;7.90;99.90
2603;DHT22;1311;47.966;7.958;2024-02-28T09:43:27;8.30;99.90
2603;DHT22;1311;47.966;7.958;2024-02-28T09:46:08;8.10;99.90
2603;DHT22;1311;47.966;7.958;2024-02-28T09:49:07;8.10;99.90
2603;DHT22;1311;47.966;7.958;2024-02-28T09:54:53;8.20;99.90
2603;DHT22;1311;47.966;7.958;2024-02-28T09:57:37;8.10;99.90
2603;DHT22;1311;47.966;7.958;2024-02-28T10:00:09;8.10;99.90
2603;DHT22;1311;47.966;7.958;2024-02-28T10:02:44;8.10;99.90
2603;DHT22;1311;47.966;7.958;2024-02-28T10:05:11;8.30;99.90
2603;DHT22;1311;47.966;7.958;2024-02-28T10:07:40;8.90;99.90
2603;DHT22;1311;47.966;7.958;2024-02-28T10:10:08;8.50;99.90
2603;DHT22;1311;47.966;7.958;2024-02-28T10:12:41;8.40;99.90
2603;DHT22;1311;47.966;7.958;2024-02-28T10:15:10;8.50;99.90
2603;DHT22;1311;47.966;7.958;2024-02-28T10:17:37;8.60;99.90
2603;DHT22;1311;47.966;7.958;2024-02-28T10:20:06;8.40;99.90
2603;DHT22;1311;47.966;7.958;2024-02-28T10:22:37;8.50;99.90
2603;DHT22;1311;47.966;7.958;2024-02-28T10:25:04;8.60;99.90
2603;DHT22;1311;47.966;7.958;2024-02-28T10:27:34;8.60;99.90
2603;DHT22;1311;47.966;7.958;2024-02-28T10:30:04;8.50;99.90
2603;DHT22;1311;47.966;7.958;2024-02-28T10:32:57;8.40;99.90
2603;DHT22;1311;47.966;7.958;2024-02-28T10:35:27;8.50;99.90
2603;DHT22;1311;47.966;7.958;2024-02-28T10:37:53;8.40;99.90
2603;DHT22;1311;47.966;7.958;2024-02-28T10:40:22;8.30;99.90
2603;DHT22;1311;47.966;7.958;2024-02-28T10:42:49;8.50;99.90
2603;DHT22;1311;47.966;7.958;2024-02-28T10:45:17;8.80;99.90
2603;DHT22;1311;47.966;7.958;2024-02-28T10:47:45;9.00;99.90
2603;DHT22;1311;47.966;7.958;2024-02-28T10:50:13;9.00;99.90
2603;DHT22;1311;47.966;7.958;2024-02-28T10:52:45;9.20;99.90
2603;DHT22;1311;47.966;7.958;2024-02-28T10:55:17;10.20;99.90
2603;DHT22;1311;47.966;7.958;2024-02-28T10:57:53;9.50;99.90
2603;DHT22;1311;47.966;7.958;2024-02-28T11:00:24;9.80;99.90
2603;DHT22;1311;47.966;7.958;2024-02-28T11:02:51;10.00;99.90
2603;DHT22;1311;47.966;7.958;2024-02-28T11:05:18;10.30;99.90
2603;DHT22;1311;47.966;7.958;2024-02-28T11:07:51;10.50;99.90
2603;DHT22;1311;47.966;7.958;2024-02-28T11:10:22;10.60;99.90
2603;DHT22;1311;47.966;7.958;2024-02-28T11:12:54;10.60;99.90
2603;DHT22;1311;47.966;7.958;2024-02-28T11:15:25;10.70;99.90
2603;DHT22;1311;47.966;7.958;2024-02-28T11:17:52;10.70;99.90
2603;DHT22;1311;47.966;7.958;2024-02-28T11:20:19;10.80;99.90
2603;DHT22;1311;47.966;7.958;2024-02-28T11:22:56;10.90;99.90
2603;DHT22;1311;47.966;7.958;2024-02-28T11:25:23;11.00;99.90
2603;DHT22;1311;47.966;7.958;2024-02-28T11:27:50;11.10;99.90
2603;DHT22;1311;47.966;7.958;2024-02-28T11:30:17;11.20;99.90
2603;DHT22;1311;47.966;7.958;2024-02-28T11:32:44;11.40;99.90
2603;DHT22;1311;47.966;7.958;2024-02-28T11:35:11;11.70;99.90
2603;DHT22;1311;47.966;7.958;2024-02-28T11:37:38;12.10;99.90
2603;DHT22;1311;47.966;7.958;2024-02-28T11:40:09;12.20;99.90
2603;DHT22;1311;47.966;7.958;2024-02-28T11:42:38;12.40;99.90
2603;DHT22;1311;47.966;7.958;2024-02-28T11:45:05;12.50;99.90
2603;DHT22;1311;47.966;7.958;2024-02-28T11:47:32;12.20;76.00
2603;DHT22;1311;47.966;7.958;2024-02-28T11:49:59;12.50;51.20
2603;DHT22;1311;47.966;7.958;2024-02-28T11:52:27;12.30;1.00
2603;DHT22;1311;47.966;7.958;2024-02-28T11:54:53;12.40;1.00
2603;DHT22;1311;47.966;7.958;2024-02-28T11:57:21;13.10;1.00
2603;DHT22;1311;47.966;7.958;2024-02-28T11:59:49;12.40;1.00
2603;DHT22;1311;47.966;7.958;2024-02-28T12:02:17;12.30;1.00
2603;DHT22;1311;47.966;7.958;2024-02-28T12:04:44;12.00;1.00
2603;DHT22;1311;47.966;7.958;2024-02-28T12:07:15;12.10;1.00
2603;DHT22;1311;47.966;7.958;2024-02-28T12:09:42;11.80;1.00
2603;DHT22;1311;47.966;7.958;2024-02-28T12:12:12;11.60;1.00
2603;DHT22;1311;47.966;7.958;2024-02-28T12:14:40;11.60;1.00
2603;DHT22;1311;47.966;7.958;2024-02-28T12:17:08;11.30;1.00
2603;DHT22;1311;47.966;7.958;2024-02-28T12:19:35;11.40;1.00
2603;DHT22;1311;47.966;7.958;2024-02-28T12:22:02;11.60;1.00
2603;DHT22;1311;47.966;7.958;2024-02-28T12:24:29;11.80;1.00
2603;DHT22;1311;47.966;7.958;2024-02-28T12:26:56;12.20;1.00
2603;DHT22;1311;47.966;7.958;2024-02-28T12:29:23;12.30;1.00
2603;DHT22;1311;47.966;7.958;2024-02-28T12:31:51;13.10;1.00
2603;DHT22;1311;47.966;7.958;2024-02-28T12:34:18;13.10;99.90
2603;DHT22;1311;47.966;7.958;2024-02-28T12:36:44;13.20;99.90
2603;DHT22;1311;47.966;7.958;2024-02-28T12:39:11;12.90;1.00
2603;DHT22;1311;47.966;7.958;2024-02-28T12:41:38;13.10;1.00
2603;DHT22;1311;47.966;7.958;2024-02-28T12:44:05;12.80;1.00
2603;DHT22;1311;47.966;7.958;2024-02-28T12:46:33;12.20;1.00
2603;DHT22;1311;47.966;7.958;2024-02-28T12:49:01;11.90;99.90
2603;DHT22;1311;47.966;7.958;2024-02-28T12:51:38;12.00;1.00
2603;DHT22;1311;47.966;7.958;2024-02-28T12:54:07;13.10;1.00
2603;DHT22;1311;47.966;7.958;2024-02-28T12:56:34;12.50;1.00
2603;DHT22;1311;47.966;7.958;2024-02-28T12:59:01;12.90;1.00
2603;DHT22;1311;47.966;7.958;2024-02-28T13:01:28;12.60;1.00
2603;DHT22;1311;47.966;7.958;2024-02-28T13:03:55;12.40;1.00
2603;DHT22;1311;47.966;7.958;2024-02-28T13:06:24;12.80;99.90
2603;DHT22;1311;47.966;7.958;2024-02-28T13:08:51;12.70;1.00
2603;DHT22;1311;47.966;7.958;2024-02-28T13:11:18;12.70;1.00
2603;DHT22;1311;47.966;7.958;2024-02-28T13:13:46;12.60;99.90
2603;DHT22;1311;47.966;7.958;2024-02-28T13:16:12;12.20;76.50
2603;DHT22;1311;47.966;7.958;2024-02-28T13:18:39;12.00;99.90
2603;DHT22;1311;47.966;7.958;2024-02-28T13:21:06;12.30;1.00
2603;DHT22;1311;47.966;7.958;2024-02-28T13:23:34;12.50;1.00
2603;DHT22;1311;47.966;7.958;2024-02-28T13:26:03;12.80;1.00
2603;DHT22;1311;47.966;7.958;2024-02-28T13:28:29;12.80;9.20
2603;DHT22;1311;47.966;7.958;2024-02-28T13:30:57;12.80;1.00
2603;DHT22;1311;47.966;7.958;2024-02-28T13:33:24;12.90;99.90
2603;DHT22;1311;47.966;7.958;2024-02-28T13:35:50;12.80;99.90
2603;DHT22;1311;47.966;7.958;2024-02-28T13:38:18;13.40;1.00
2603;DHT22;1311;47.966;7.958;2024-02-28T13:40:47;13.00;99.90
2603;DHT22;1311;47.966;7.958;2024-02-28T13:43:15;13.00;99.90
2603;DHT22;1311;47.966;7.958;2024-02-28T13:45:46;13.30;99.90
2603;DHT22;1311;47.966;7.958;2024-02-28T13:48:15;13.30;1.00
2603;DHT22;1311;47.966;7.958;2024-02-28T13:50:43;13.30;1.00
2603;DHT22;1311;47.966;7.958;2024-02-28T13:53:09;13.20;1.00
2603;DHT22;1311;47.966;7.958;2024-02-28T13:55:36;13.20;99.90
2603;DHT22;1311;47.966;7.958;2024-02-28T13:58:05;13.30;99.90
2603;DHT22;1311;47.966;7.958;2024-02-28T14:00:33;13.30;99.90
2603;DHT22;1311;47.966;7.958;2024-02-28T14:03:00;13.70;99.90
2603;DHT22;1311;47.966;7.958;2024-02-28T14:05:27;13.80;1.00
2603;DHT22;1311;47.966;7.958;2024-02-28T14:07:54;14.00;1.00
2603;DHT22;1311;47.966;7.958;2024-02-28T14:10:21;14.20;99.90
2603;DHT22;1311;47.966;7.958;2024-02-28T14:12:48;14.40;99.90
2603;DHT22;1311;47.966;7.958;2024-02-28T14:15:16;14.40;1.00
2603;DHT22;1311;47.966;7.958;2024-02-28T14:17:43;14.30;1.00
2603;DHT22;1311;47.966;7.958;2024-02-28T14:20:10;14.00;1.00
2603;DHT22;1311;47.966;7.958;2024-02-28T14:22:37;13.90;1.00
2603;DHT22;1311;47.966;7.958;2024-02-28T14:25:07;13.90;1.00
2603;DHT22;1311;47.966;7.958;2024-02-28T14:27:34;14.30;1.00
2603;DHT22;1311;47.966;7.958;2024-02-28T14:30:01;14.30;1.00
2603;DHT22;1311;47.966;7.958;2024-02-28T14:32:34;14.40;1.00
2603;DHT22;1311;47.966;7.958;2024-02-28T14:35:02;14.20;99.90
2603;DHT22;1311;47.966;7.958;2024-02-28T14:37:28;14.00;99.90
2603;DHT22;1311;47.966;7.958;2024-02-28T14:39:55;13.90;99.90
2603;DHT22;1311;47.966;7.958;2024-02-28T14:42:22;13.70;1.00
2603;DHT22;1311;47.966;7.958;2024-02-28T14:44:51;13.60;1.00
2603;DHT22;1311;47.966;7.958;2024-02-28T14:47:34;13.40;1.00
2603;DHT22;1311;47.966;7.958;2024-02-28T14:50:02;13.20;1.00
2603;DHT22;1311;47.966;7.958;2024-02-28T14:52:29;13.40;1.00
2603;DHT22;1311;47.966;7.958;2024-02-28T14:54:55;13.40;1.00
2603;DHT22;1311;47.966;7.958;2024-02-28T14:57:22;13.40;1.00
2603;DHT22;1311;47.966;7.958;2024-02-28T14:59:49;13.20;1.00
2603;DHT22;1311;47.966;7.958;2024-02-28T15:02:16;13.30;1.00
2603;DHT22;1311;47.966;7.958;2024-02-28T15:04:44;13.20;1.00
2603;DHT22;1311;47.966;7.958;2024-02-28T15:07:10;13.00;1.00
2603;DHT22;1311;47.966;7.958;2024-02-28T15:09:37;13.20;1.00
2603;DHT22;1311;47.966;7.958;2024-02-28T15:12:04;13.30;1.00
2603;DHT22;1311;47.966;7.958;2024-02-28T15:14:31;13.00;1.00
2603;DHT22;1311;47.966;7.958;2024-02-28T15:16:58;12.80;1.00
2603;DHT22;1311;47.966;7.958;2024-02-28T15:19:25;12.60;1.00
2603;DHT22;1311;47.966;7.958;2024-02-28T15:21:54;12.60;1.00
2603;DHT22;1311;47.966;7.958;2024-02-28T15:24:21;12.40;1.00
2603;DHT22;1311;47.966;7.958;2024-02-28T15:26:48;12.30;1.00
2603;DHT22;1311;47.966;7.958;2024-02-28T15:29:14;12.20;99.90
2603;DHT22;1311;47.966;7.958;2024-02-28T15:31:41;12.10;99.90
2603;DHT22;1311;47.966;7.958;2024-02-28T15:34:08;12.00;99.90
2603;DHT22;1311;47.966;7.958;2024-02-28T15:36:35;12.00;1.00
2603;DHT22;1311;47.966;7.958;2024-02-28T15:39:04;12.00;1.00
2603;DHT22;1311;47.966;7.958;2024-02-28T15:41:32;12.20;1.00
2603;DHT22;1311;47.966;7.958;2024-02-28T15:43:59;12.20;1.00
2603;DHT22;1311;47.966;7.958;2024-02-28T15:46:26;12.20;1.00
2603;DHT22;1311;47.966;7.958;2024-02-28T15:48:52;12.10;1.00
2603;DHT22;1311;47.966;7.958;2024-02-28T15:51:19;11.90;1.00
2603;DHT22;1311;47.966;7.958;2024-02-28T15:53:46;11.60;17.90
2603;DHT22;1311;47.966;7.958;2024-02-28T15:56:15;11.40;99.90
2603;DHT22;1311;47.966;7.958;2024-02-28T15:58:42;11.10;1.00
2603;DHT22;1311;47.966;7.958;2024-02-28T16:01:10;11.00;1.00
2603;DHT22;1311;47.966;7.958;2024-02-28T16:03:37;10.90;1.00
2603;DHT22;1311;47.966;7.958;2024-02-28T16:06:06;10.80;1.00
2603;DHT22;1311;47.966;7.958;2024-02-28T16:08:33;10.70;99.90
2603;DHT22;1311;47.966;7.958;2024-02-28T16:11:00;10.50;99.90
2603;DHT22;1311;47.966;7.958;2024-02-28T16:13:28;10.40;1.00
2603;DHT22;1311;47.966;7.958;2024-02-28T16:15:55;10.30;1.00
2603;DHT22;1311;47.966;7.958;2024-02-28T16:18:21;10.20;1.00
2603;DHT22;1311;47.966;7.958;2024-02-28T16:20:48;10.10;1.00
2603;DHT22;1311;47.966;7.958;2024-02-28T16:23:15;10.00;1.00
2603;DHT22;1311;47.966;7.958;2024-02-28T16:25:42;9.90;1.00